createdAt,value
2023-11-15T00:00:11.679Z,9.70
2023-11-15T00:02:38.948Z,9.60
2023-11-15T00:05:06.596Z,9.60
2023-11-15T00:07:33.885Z,9.60
2023-11-15T00:10:00.702Z,9.70
2023-11-15T00:12:27.513Z,9.70
2023-11-15T00:14:54.445Z,9.70
2023-11-15T00:17:22.691Z,9.60
2023-11-15T00:19:49.470Z,9.70
2023-11-15T00:22:16.361Z,9.70
2023-11-15T00:24:44.558Z,9.70
2023-11-15T00:27:11.885Z,9.60
2023-11-15T00:29:38.955Z,9.70
2023-11-15T00:32:06.532Z,9.70
2023-11-15T00:34:34.675Z,9.70
2023-11-15T00:37:01.479Z,9.60
2023-11-15T00:39:28.670Z,9.70
2023-11-15T00:41:55.502Z,9.70
2023-11-15T00:44:22.409Z,9.70
2023-11-15T00:46:49.253Z,9.70
2023-11-15T00:49:16.060Z,9.70
2023-11-15T00:51:44.170Z,9.70
2023-11-15T00:54:10.934Z,9.70
2023-11-15T00:56:37.744Z,9.70
2023-11-15T00:59:04.552Z,9.60
2023-11-15T01:01:31.303Z,9.60
2023-11-15T01:03:58.197Z,9.70
2023-11-15T01:06:25.586Z,9.70
2023-11-15T01:08:54.613Z,9.70
2023-11-15T01:11:21.745Z,9.60
2023-11-15T01:13:48.579Z,9.60
2023-11-15T01:16:15.659Z,9.70
2023-11-15T01:18:42.491Z,9.70
2023-11-15T01:21:09.339Z,9.60
2023-11-15T01:23:36.221Z,9.70
2023-11-15T01:26:04.793Z,9.70
2023-11-15T01:28:31.575Z,9.70
2023-11-15T01:30:58.383Z,9.70
2023-11-15T01:33:25.200Z,9.60
2023-11-15T01:35:52.036Z,9.70
2023-11-15T01:38:18.977Z,9.70
2023-11-15T01:40:45.759Z,9.70
2023-11-15T01:43:15.087Z,9.60
2023-11-15T01:45:41.835Z,9.60
2023-11-15T01:48:08.841Z,9.60
2023-11-15T01:50:36.243Z,9.60
2023-11-15T01:53:03.341Z,9.60
2023-11-15T01:55:31.751Z,9.60
2023-11-15T01:57:59.293Z,9.60
2023-11-15T02:00:28.042Z,9.70
2023-11-15T02:02:54.969Z,9.70
2023-11-15T02:05:21.810Z,9.60
2023-11-15T02:07:48.636Z,9.60
2023-11-15T02:10:15.542Z,9.60
2023-11-15T02:12:42.391Z,9.60
2023-11-15T02:15:09.933Z,9.70
2023-11-15T02:17:38.205Z,9.60
2023-11-15T02:20:06.091Z,9.70
2023-11-15T02:22:34.355Z,9.60
2023-11-15T02:25:02.479Z,9.70
2023-11-15T02:27:29.217Z,9.60
2023-11-15T02:29:55.998Z,9.60
2023-11-15T02:32:22.812Z,9.60
2023-11-15T02:34:49.604Z,9.60
2023-11-15T02:37:16.541Z,9.60
2023-11-15T02:39:43.265Z,9.60
2023-11-15T02:42:11.385Z,9.60
2023-11-15T02:44:38.173Z,9.60
2023-11-15T02:47:05.345Z,9.60
2023-11-15T02:49:32.072Z,9.60
2023-11-15T02:51:58.831Z,9.60
2023-11-15T02:54:25.587Z,9.60
2023-11-15T02:56:52.388Z,9.60
2023-11-15T02:59:20.698Z,9.60
2023-11-15T03:01:47.592Z,9.60
2023-11-15T03:04:14.452Z,9.60
2023-11-15T03:06:41.253Z,9.60
2023-11-15T03:09:08.009Z,9.60
2023-11-15T03:11:35.056Z,9.60
2023-11-15T03:14:01.905Z,9.60
2023-11-15T03:16:30.186Z,9.60
2023-11-15T03:18:57.042Z,9.60
2023-11-15T03:21:23.829Z,9.60
2023-11-15T03:23:50.661Z,9.60
2023-11-15T03:26:17.449Z,9.60
2023-11-15T03:28:44.189Z,9.60
2023-11-15T03:31:12.661Z,9.60
2023-11-15T03:33:40.989Z,9.60
2023-11-15T03:36:08.394Z,9.60
2023-11-15T03:38:35.838Z,9.60
2023-11-15T03:41:02.676Z,9.60
2023-11-15T03:43:29.452Z,9.60
2023-11-15T03:45:56.326Z,9.60
2023-11-15T03:48:23.175Z,9.60
2023-11-15T03:50:51.379Z,9.50
2023-11-15T03:53:18.162Z,9.60
2023-11-15T03:55:47.567Z,9.50
2023-11-15T03:58:14.606Z,9.50
2023-11-15T04:00:41.366Z,9.50
2023-11-15T04:03:08.245Z,9.50
2023-11-15T04:05:35.288Z,9.50
2023-11-15T04:08:03.677Z,9.50
2023-11-15T04:10:30.517Z,9.50
2023-11-15T04:12:57.371Z,9.50
2023-11-15T04:15:24.152Z,9.50
2023-11-15T04:17:51.095Z,9.50
2023-11-15T04:20:17.968Z,9.50
2023-11-15T04:22:44.758Z,9.50
2023-11-15T04:25:12.843Z,9.50
2023-11-15T04:27:39.594Z,9.50
2023-11-15T04:30:07.799Z,9.50
2023-11-15T04:32:34.629Z,9.50
2023-11-15T04:35:01.424Z,9.50
2023-11-15T04:37:28.172Z,9.40
2023-11-15T04:39:54.969Z,9.50
2023-11-15T04:42:23.073Z,9.50
2023-11-15T04:44:50.007Z,9.40
2023-11-15T04:47:16.975Z,9.40
2023-11-15T04:49:43.756Z,9.40
2023-11-15T04:52:10.541Z,9.40
2023-11-15T04:54:37.330Z,9.40
2023-11-15T04:57:04.461Z,9.40
2023-11-15T04:59:32.686Z,9.40
2023-11-15T05:01:59.538Z,9.40
2023-11-15T05:04:26.676Z,9.40
2023-11-15T05:06:53.801Z,9.50
2023-11-15T05:09:20.883Z,9.40
2023-11-15T05:11:47.679Z,9.50
2023-11-15T05:14:14.493Z,9.40
2023-11-15T05:16:42.733Z,9.40
2023-11-15T05:19:09.540Z,9.40
2023-11-15T05:21:36.328Z,9.40
2023-11-15T05:24:04.094Z,9.40
2023-11-15T05:26:31.002Z,9.40
2023-11-15T05:28:57.777Z,9.40
2023-11-15T05:31:24.608Z,9.40
2023-11-15T05:33:52.706Z,9.40
2023-11-15T05:36:19.473Z,9.40
2023-11-15T05:38:46.285Z,9.40
2023-11-15T05:41:13.096Z,9.40
2023-11-15T05:43:39.908Z,9.40
2023-11-15T05:46:06.768Z,9.40
2023-11-15T05:48:33.616Z,9.40
2023-11-15T05:51:01.811Z,9.40
2023-11-15T05:53:28.624Z,9.40
2023-11-15T05:55:55.496Z,9.40
2023-11-15T05:58:22.263Z,9.40
2023-11-15T06:00:49.093Z,9.40
2023-11-15T06:03:16.067Z,9.40
2023-11-15T06:05:42.898Z,9.40
2023-11-15T06:08:11.026Z,9.40
2023-11-15T06:10:37.774Z,9.40
2023-11-15T06:13:04.569Z,9.30
2023-11-15T06:15:31.353Z,9.40
2023-11-15T06:17:58.241Z,9.30
2023-11-15T06:20:25.073Z,9.40
2023-11-15T06:22:51.850Z,9.40
2023-11-15T06:25:20.315Z,9.40
2023-11-15T06:27:47.267Z,9.30
2023-11-15T06:30:14.498Z,9.30
2023-11-15T06:32:41.489Z,9.30
2023-11-15T06:35:08.834Z,9.30
2023-11-15T06:37:35.743Z,9.30
2023-11-15T06:40:02.657Z,9.30
2023-11-15T06:42:30.747Z,9.30
2023-11-15T06:44:57.536Z,9.30
2023-11-15T06:47:24.313Z,9.30
2023-11-15T06:49:51.162Z,9.30
2023-11-15T06:52:17.938Z,9.30
2023-11-15T06:54:44.732Z,9.30
2023-11-15T06:57:11.575Z,9.30
2023-11-15T06:59:39.756Z,9.30
2023-11-15T07:02:06.741Z,9.30
2023-11-15T07:04:33.710Z,9.30
2023-11-15T07:07:00.551Z,9.30
2023-11-15T07:09:27.314Z,9.30
2023-11-15T07:11:54.164Z,9.30
2023-11-15T07:14:21.050Z,9.30
2023-11-15T07:16:50.189Z,9.30
2023-11-15T07:19:16.929Z,9.30
2023-11-15T07:21:43.705Z,9.30
2023-11-15T07:24:10.576Z,9.30
2023-11-15T07:26:37.769Z,9.30
2023-11-15T07:29:05.679Z,9.30
2023-11-15T07:31:32.469Z,9.30
2023-11-15T07:34:00.951Z,9.30
2023-11-15T07:36:29.191Z,9.30
2023-11-15T07:38:56.460Z,9.30
2023-11-15T07:41:23.258Z,9.30
2023-11-15T07:43:50.026Z,9.30
2023-11-15T07:46:16.875Z,9.40
2023-11-15T07:48:43.755Z,9.30
2023-11-15T07:51:11.948Z,9.30
2023-11-15T07:53:38.741Z,9.30
2023-11-15T07:56:06.591Z,9.40
2023-11-15T07:58:34.277Z,9.30
2023-11-15T08:01:01.083Z,9.30
2023-11-15T08:03:28.057Z,9.30
2023-11-15T08:05:55.092Z,9.40
2023-11-15T08:08:23.244Z,9.30
2023-11-15T08:10:50.390Z,9.40
2023-11-15T08:13:17.233Z,9.40
2023-11-15T08:15:44.038Z,9.40
2023-11-15T08:18:10.946Z,9.40
2023-11-15T08:20:37.801Z,9.40
2023-11-15T08:23:04.621Z,9.40
2023-11-15T08:25:33.052Z,9.40
2023-11-15T08:28:02.548Z,9.40
2023-11-15T08:30:29.745Z,9.40
2023-11-15T08:32:56.617Z,9.40
2023-11-15T08:35:23.406Z,9.40
2023-11-15T08:37:50.165Z,9.40
2023-11-15T08:40:26.091Z,9.40
2023-11-15T08:42:56.931Z,9.40
2023-11-15T08:45:24.006Z,9.40
2023-11-15T08:47:51.006Z,9.40
2023-11-15T08:50:17.877Z,9.40
2023-11-15T08:52:44.641Z,9.40
2023-11-15T08:55:11.418Z,9.40
2023-11-15T08:57:38.232Z,9.40
2023-11-15T09:00:08.015Z,9.40
2023-11-15T09:02:35.016Z,9.40
2023-11-15T09:05:01.808Z,9.40
2023-11-15T09:07:29.640Z,9.40
2023-11-15T09:09:56.483Z,9.50
2023-11-15T09:12:23.221Z,9.50
2023-11-15T09:14:50.021Z,9.40
2023-11-15T09:17:18.159Z,9.50
2023-11-15T09:19:44.951Z,9.40
2023-11-15T09:22:11.733Z,9.40
2023-11-15T09:24:38.664Z,9.50
2023-11-15T09:27:05.872Z,9.40
2023-11-15T09:29:33.121Z,9.50
2023-11-15T09:31:59.915Z,9.40
2023-11-15T09:34:28.256Z,9.40
2023-11-15T09:36:55.230Z,9.40
2023-11-15T09:39:21.994Z,9.40
2023-11-15T09:41:49.899Z,9.40
2023-11-15T09:44:17.368Z,9.50
2023-11-15T09:46:44.438Z,9.50
2023-11-15T09:49:14.427Z,9.40
2023-11-15T09:51:43.536Z,9.40
2023-11-15T09:54:17.542Z,9.50
2023-11-15T09:56:46.350Z,9.50
2023-11-15T09:59:14.126Z,9.40
2023-11-15T10:01:43.981Z,9.50
2023-11-15T10:04:21.469Z,9.50
2023-11-15T10:06:50.592Z,9.50
2023-11-15T10:09:17.393Z,9.50
2023-11-15T10:11:48.925Z,9.50
2023-11-15T10:14:15.713Z,9.50
2023-11-15T10:16:48.264Z,9.60
2023-11-15T10:19:25.501Z,9.50
2023-11-15T10:22:00.873Z,9.60
2023-11-15T10:24:28.022Z,9.50
2023-11-15T10:26:55.801Z,9.50
2023-11-15T10:29:22.655Z,9.60
2023-11-15T10:31:50.047Z,9.50
2023-11-15T10:34:21.218Z,9.60
2023-11-15T10:37:04.270Z,9.50
2023-11-15T10:39:31.191Z,9.60
2023-11-15T10:41:58.562Z,9.50
2023-11-15T10:44:25.376Z,9.50
2023-11-15T10:46:53.204Z,9.50
2023-11-15T10:49:21.543Z,9.60
2023-11-15T10:51:49.645Z,9.60
2023-11-15T10:54:17.858Z,9.60
2023-11-15T10:56:44.849Z,9.60
2023-11-15T10:59:11.803Z,9.60
2023-11-15T11:01:39.159Z,9.50
2023-11-15T11:04:07.186Z,9.60
2023-11-15T11:06:44.601Z,9.50
2023-11-15T11:09:15.845Z,9.50
2023-11-15T11:11:50.006Z,9.50
2023-11-15T11:14:17.684Z,9.50
2023-11-15T11:16:44.943Z,9.60
2023-11-15T11:19:13.239Z,9.60
2023-11-15T11:22:07.607Z,9.60
2023-11-15T11:24:36.209Z,9.60
2023-11-15T11:27:32.364Z,9.60
2023-11-15T11:30:23.733Z,9.60
2023-11-15T11:33:07.321Z,9.70
2023-11-15T11:35:34.108Z,9.70
2023-11-15T11:38:01.101Z,9.70
2023-11-15T11:40:29.864Z,9.70
2023-11-15T11:43:19.196Z,9.70
2023-11-15T11:45:47.084Z,9.70
2023-11-15T11:48:18.559Z,9.70
2023-11-15T11:51:03.799Z,9.70
2023-11-15T11:53:30.822Z,9.70
2023-11-15T11:55:57.585Z,9.70
2023-11-15T11:58:29.812Z,9.70
2023-11-15T12:01:01.336Z,9.70
2023-11-15T12:03:28.215Z,9.70
2023-11-15T12:05:59.383Z,9.70
2023-11-15T12:08:27.158Z,9.70
2023-11-15T12:10:54.325Z,9.70
2023-11-15T12:13:21.106Z,9.70
2023-11-15T12:15:49.225Z,9.80
2023-11-15T12:18:16.062Z,9.70
2023-11-15T12:20:43.101Z,9.70
2023-11-15T12:23:11.339Z,9.80
2023-11-15T12:25:44.535Z,9.80
2023-11-15T12:28:12.449Z,9.70
2023-11-15T12:30:39.644Z,9.80
2023-11-15T12:33:08.136Z,9.80
2023-11-15T12:35:36.122Z,9.70
2023-11-15T12:38:05.970Z,9.70
2023-11-15T12:40:34.330Z,9.70
2023-11-15T12:43:14.029Z,9.80
2023-11-15T12:45:41.363Z,9.80
2023-11-15T12:48:09.585Z,9.80
2023-11-15T12:50:37.973Z,9.80
2023-11-15T12:53:04.847Z,9.80
2023-11-15T12:55:46.278Z,9.80
2023-11-15T12:58:13.844Z,9.80
2023-11-15T13:00:40.642Z,9.80
2023-11-15T13:03:18.846Z,9.80
2023-11-15T13:05:45.775Z,9.80
2023-11-15T13:08:12.571Z,9.80
2023-11-15T13:10:39.528Z,9.80
2023-11-15T13:13:06.446Z,9.80
2023-11-15T13:15:33.180Z,9.80
2023-11-15T13:18:00.006Z,9.80
2023-11-15T13:20:28.174Z,9.80
2023-11-15T13:22:54.940Z,9.80
2023-11-15T13:25:21.780Z,9.80
2023-11-15T13:27:48.656Z,9.80
2023-11-15T13:30:15.615Z,9.90
2023-11-15T13:32:42.475Z,9.80
2023-11-15T13:35:09.566Z,9.80
2023-11-15T13:37:37.662Z,9.90
2023-11-15T13:40:05.290Z,9.90
2023-11-15T13:42:32.050Z,9.90
2023-11-15T13:44:58.860Z,9.90
2023-11-15T13:47:25.653Z,9.90
2023-11-15T13:49:52.437Z,9.90
2023-11-15T13:52:19.178Z,9.90
2023-11-15T13:54:47.272Z,9.90
2023-11-15T13:57:14.144Z,9.90
2023-11-15T13:59:40.926Z,9.90
2023-11-15T14:02:07.778Z,9.90
2023-11-15T14:04:34.536Z,9.90
2023-11-15T14:07:01.299Z,9.90
2023-11-15T14:09:28.059Z,9.90
2023-11-15T14:11:58.100Z,9.90
2023-11-15T14:14:25.651Z,9.90
2023-11-15T14:16:52.447Z,9.90
2023-11-15T14:19:19.316Z,9.90
2023-11-15T14:21:46.116Z,10.00
2023-11-15T14:24:12.883Z,10.00
2023-11-15T14:26:39.691Z,10.00
2023-11-15T14:29:07.761Z,9.90
2023-11-15T14:31:37.064Z,9.90
2023-11-15T14:34:03.975Z,9.90
2023-11-15T14:36:30.776Z,9.90
2023-11-15T14:38:57.606Z,9.90
2023-11-15T14:41:24.442Z,9.90
2023-11-15T14:43:51.203Z,9.90
2023-11-15T14:46:19.475Z,9.90
2023-11-15T14:48:46.506Z,10.00
2023-11-15T14:51:13.433Z,9.90
2023-11-15T14:53:40.218Z,9.90
2023-11-15T14:56:07.610Z,9.90
2023-11-15T14:58:34.337Z,9.90
2023-11-15T15:01:01.120Z,9.90
2023-11-15T15:03:29.415Z,9.90
2023-11-15T15:05:56.325Z,9.90
2023-11-15T15:08:23.294Z,9.90
2023-11-15T15:10:50.134Z,9.90
2023-11-15T15:13:16.968Z,9.90
2023-11-15T15:15:43.797Z,9.90
2023-11-15T15:18:16.394Z,9.90
2023-11-15T15:20:47.696Z,9.90
2023-11-15T15:23:14.677Z,9.90
2023-11-15T15:25:41.981Z,9.90
2023-11-15T15:28:09.015Z,9.90
2023-11-15T15:30:35.945Z,9.90
2023-11-15T15:33:03.887Z,9.90
2023-11-15T15:35:31.057Z,9.90
2023-11-15T15:37:59.417Z,9.80
2023-11-15T15:40:26.269Z,9.80
2023-11-15T15:42:53.458Z,9.80
2023-11-15T15:45:20.398Z,9.80
2023-11-15T15:47:48.332Z,9.80
2023-11-15T15:50:16.251Z,9.80
2023-11-15T15:52:43.782Z,9.80
2023-11-15T15:55:12.063Z,9.80
2023-11-15T15:57:39.182Z,9.80
2023-11-15T16:00:07.197Z,9.80
2023-11-15T16:02:33.987Z,9.80
2023-11-15T16:05:00.763Z,9.70
2023-11-15T16:07:27.527Z,9.80
2023-11-15T16:09:54.288Z,9.80
2023-11-15T16:12:22.430Z,9.70
2023-11-15T16:14:49.282Z,9.70
2023-11-15T16:17:16.053Z,9.70
2023-11-15T16:19:43.055Z,9.70
2023-11-15T16:22:09.820Z,9.70
2023-11-15T16:24:36.567Z,9.70
2023-11-15T16:27:03.696Z,9.70
2023-11-15T16:29:31.822Z,9.70
2023-11-15T16:31:58.576Z,9.60
2023-11-15T16:34:25.457Z,9.60
2023-11-15T16:36:52.232Z,9.60
2023-11-15T16:39:19.074Z,9.60
2023-11-15T16:41:46.734Z,9.60
2023-11-15T16:44:13.765Z,9.50
2023-11-15T16:46:41.885Z,9.60
2023-11-15T16:49:08.996Z,9.60
2023-11-15T16:51:36.033Z,9.50
2023-11-15T16:54:02.797Z,9.50
2023-11-15T16:56:29.559Z,9.50
2023-11-15T16:58:56.335Z,9.50
2023-11-15T17:01:23.129Z,9.50
2023-11-15T17:03:51.340Z,9.50
2023-11-15T17:06:18.167Z,9.50
2023-11-15T17:08:46.976Z,9.50
2023-11-15T17:11:15.016Z,9.40
2023-11-15T17:13:41.807Z,9.50
2023-11-15T17:16:09.355Z,9.40
2023-11-15T17:18:36.238Z,9.40
2023-11-15T17:21:05.072Z,9.40
2023-11-15T17:23:31.887Z,9.40
2023-11-15T17:25:58.674Z,9.40
2023-11-15T17:28:25.430Z,9.40
2023-11-15T17:30:52.190Z,9.40
2023-11-15T17:33:19.117Z,9.40
2023-11-15T17:35:46.009Z,9.40
2023-11-15T17:38:14.130Z,9.40
2023-11-15T17:40:40.902Z,9.40
2023-11-15T17:43:07.680Z,9.40
2023-11-15T17:45:35.242Z,9.40
2023-11-15T17:48:02.086Z,9.40
2023-11-15T17:50:28.926Z,9.40
2023-11-15T17:52:55.697Z,9.40
2023-11-15T17:55:23.781Z,9.40
2023-11-15T17:57:50.642Z,9.40
2023-11-15T18:00:18.074Z,9.40
2023-11-15T18:02:45.116Z,9.40
2023-11-15T18:05:12.228Z,9.40
2023-11-15T18:07:39.020Z,9.30
2023-11-15T18:10:07.014Z,9.30
2023-11-15T18:12:37.299Z,9.30
2023-11-15T18:15:04.981Z,9.30
2023-11-15T18:17:31.881Z,9.30
2023-11-15T18:19:58.872Z,9.30
2023-11-15T18:22:25.658Z,9.30
2023-11-15T18:24:53.009Z,9.30
2023-11-15T18:27:20.219Z,9.30
2023-11-15T18:29:50.356Z,9.30
2023-11-15T18:32:17.746Z,9.30
2023-11-15T18:34:45.094Z,9.30
2023-11-15T18:37:12.456Z,9.30
2023-11-15T18:39:40.788Z,9.20
2023-11-15T18:42:12.565Z,9.20
2023-11-15T18:44:41.277Z,9.20
2023-11-15T18:47:11.716Z,9.20
2023-11-15T18:52:48.029Z,9.30
2023-11-15T18:55:15.482Z,9.20
2023-11-15T18:57:43.727Z,9.20
2023-11-15T19:03:09.059Z,9.30
2023-11-15T19:05:36.411Z,9.30
2023-11-15T19:08:03.675Z,9.30
2023-11-15T19:10:30.923Z,9.30
2023-11-15T19:12:57.817Z,9.30
2023-11-15T19:15:25.344Z,9.30
2023-11-15T19:17:52.340Z,9.30
2023-11-15T19:20:21.591Z,9.30
2023-11-15T19:22:49.318Z,9.30
2023-11-15T19:25:16.187Z,9.30
2023-11-15T19:27:43.014Z,9.30
2023-11-15T19:30:10.680Z,9.30
2023-11-15T19:32:37.950Z,9.30
2023-11-15T19:35:05.676Z,9.30
2023-11-15T19:37:33.780Z,9.30
2023-11-15T19:40:02.126Z,9.30
2023-11-15T19:42:30.613Z,9.30
2023-11-15T19:44:57.478Z,9.30
2023-11-15T19:47:24.290Z,9.30
2023-11-15T19:49:51.056Z,9.30
2023-11-15T19:52:17.915Z,9.30
2023-11-15T19:54:47.185Z,9.30
2023-11-15T19:57:13.973Z,9.30
2023-11-15T19:59:40.737Z,9.30
2023-11-15T20:02:07.531Z,9.30
2023-11-15T20:04:34.336Z,9.30
2023-11-15T20:07:01.210Z,9.30
2023-11-15T20:09:28.886Z,9.30
2023-11-15T20:11:57.594Z,9.30
2023-11-15T20:14:24.770Z,9.30
2023-11-15T20:16:52.216Z,9.30
2023-11-15T20:19:19.241Z,9.30
2023-11-15T20:21:46.106Z,9.30
2023-11-15T20:24:13.069Z,9.30
2023-11-15T20:26:39.913Z,9.30
2023-11-15T20:29:08.030Z,9.30
2023-11-15T20:31:35.832Z,9.30
2023-11-15T20:34:02.639Z,9.30
2023-11-15T20:36:29.441Z,9.20
2023-11-15T20:38:56.252Z,9.20
2023-11-15T20:41:23.021Z,9.20
2023-11-15T20:43:49.891Z,9.20
2023-11-15T20:46:19.782Z,9.20
2023-11-15T20:48:47.985Z,9.20
2023-11-15T20:51:14.991Z,9.20
2023-11-15T20:53:41.771Z,9.20
2023-11-15T20:56:09.049Z,9.20
2023-11-15T20:58:36.696Z,9.20
2023-11-15T21:01:03.723Z,9.20
2023-11-15T21:03:32.374Z,9.20
2023-11-15T21:05:59.396Z,9.10
2023-11-15T21:08:26.193Z,9.10
2023-11-15T21:10:52.975Z,9.10
2023-11-15T21:13:20.113Z,9.10
2023-11-15T21:15:46.895Z,9.10
2023-11-15T21:18:13.798Z,9.10
2023-11-15T21:20:42.398Z,9.10
2023-11-15T21:23:09.186Z,9.10
2023-11-15T21:25:36.027Z,9.10
2023-11-15T21:28:02.915Z,9.10
2023-11-15T21:30:29.705Z,9.10
2023-11-15T21:32:56.569Z,9.10
2023-11-15T21:35:23.336Z,9.10
2023-11-15T21:37:51.415Z,9.10
2023-11-15T21:40:19.074Z,9.10
2023-11-15T21:42:46.510Z,9.10
2023-11-15T21:45:13.967Z,9.10
2023-11-15T21:47:42.560Z,9.10
2023-11-15T21:50:10.035Z,9.00
2023-11-15T21:52:37.574Z,9.00
2023-11-15T21:55:07.155Z,9.00
2023-11-15T21:57:34.161Z,8.90
2023-11-15T22:00:00.973Z,8.90
2023-11-15T22:02:27.877Z,8.90
2023-11-15T22:04:54.673Z,8.90
2023-11-15T22:07:21.447Z,8.90
2023-11-15T22:09:48.211Z,8.90
2023-11-15T22:12:16.402Z,8.90
2023-11-15T22:14:43.175Z,8.80
2023-11-15T22:17:10.021Z,8.80
2023-11-15T22:19:36.914Z,8.80
2023-11-15T22:22:03.972Z,8.80
2023-11-15T22:24:30.764Z,8.80
2023-11-15T22:26:57.547Z,8.80
2023-11-15T22:29:25.730Z,8.70
2023-11-15T22:31:53.066Z,8.70
2023-11-15T22:34:20.251Z,8.70
2023-11-15T22:36:46.996Z,8.70
2023-11-15T22:39:13.904Z,8.70
2023-11-15T22:41:40.728Z,8.70
2023-11-15T22:44:07.497Z,8.60
2023-11-15T22:46:35.620Z,8.60
2023-11-15T22:49:02.415Z,8.60
2023-11-15T22:51:29.239Z,8.60
2023-11-15T22:53:56.021Z,8.60
2023-11-15T22:56:22.784Z,8.60
2023-11-15T22:58:49.532Z,8.60
2023-11-15T23:01:16.384Z,8.60
2023-11-15T23:03:44.713Z,8.60
2023-11-15T23:06:11.567Z,8.60
2023-11-15T23:08:39.385Z,8.60
2023-11-15T23:11:07.995Z,8.60
2023-11-15T23:13:34.728Z,8.60
2023-11-15T23:16:01.497Z,8.60
2023-11-15T23:18:28.309Z,8.60
2023-11-15T23:20:57.234Z,8.50
2023-11-15T23:23:24.109Z,8.50
2023-11-15T23:25:51.676Z,8.50
2023-11-15T23:28:18.529Z,8.50
2023-11-15T23:30:45.398Z,8.50
2023-11-15T23:33:12.265Z,8.50
2023-11-15T23:35:39.063Z,8.50
2023-11-15T23:38:07.160Z,8.50
2023-11-15T23:40:33.962Z,8.50
2023-11-15T23:43:00.820Z,8.50
2023-11-15T23:45:27.595Z,8.50
2023-11-15T23:47:54.619Z,8.50
2023-11-15T23:50:21.570Z,8.60
2023-11-15T23:52:48.532Z,8.50
2023-11-15T23:55:16.868Z,8.50
2023-11-15T23:57:43.607Z,8.50
